Terminal Aerodrome Forecast
Issued by NWS Columbia, SC

Home | Current Version | Previous Version | Text Only | Print | Product List | Glossary On
Versions: 1 2 3 4 5 6 7 8 9 10 11 12 13 14 15 16 17 18 19 20 21 22 23 24 25 26 27 28 29 30 31 32 33 34 35 36 37 38 39 40 41 42 43 44
000
FTUS42 KCAE 020800 AAA
TAFAGS
TAF AMD
KAGS 020856Z 0209/0306 VRB03KT 5SM BR OVC004
      TEMPO 0209/0212 1SM BR OVC002
     FM021500 29005KT 6SM BR OVC006
     FM021700 31005KT P6SM OVC015
     FM022100 03006KT P6SM BKN025=

USA.gov is the U.S. government's official web portal to all federal, state and local government web resources and services.